createdAt,value
2022-08-17T00:00:43.532Z,37.42
2022-08-17T00:01:26.273Z,37.37
2022-08-17T00:02:08.976Z,37.12
2022-08-17T00:03:00.851Z,37.27
2022-08-17T00:03:39.364Z,37.24
2022-08-17T00:04:12.516Z,37.22
2022-08-17T00:04:50.733Z,37.19
2022-08-17T00:05:23.439Z,37.20
2022-08-17T00:06:00.615Z,37.22
2022-08-17T00:06:32.986Z,37.20
2022-08-17T00:07:05.398Z,37.05
2022-08-17T00:07:40.360Z,37.19
2022-08-17T00:08:16.962Z,37.42
2022-08-17T00:08:53.788Z,37.17
2022-08-17T00:09:26.095Z,37.15
2022-08-17T00:09:58.442Z,37.35
2022-08-17T00:10:31.142Z,36.79
2022-08-17T00:11:09.014Z,37.04
2022-08-17T00:11:43.922Z,37.16
2022-08-17T00:12:43.054Z,37.01
2022-08-17T00:13:24.010Z,37.01
2022-08-17T00:13:58.254Z,37.05
2022-08-17T00:14:30.747Z,37.26
2022-08-17T00:15:03.968Z,37.29
2022-08-17T00:15:38.880Z,37.03
2022-08-17T00:16:13.762Z,37.13
2022-08-17T00:16:57.045Z,37.08
2022-08-17T00:17:32.607Z,37.14
2022-08-17T00:18:53.808Z,37.46
2022-08-17T00:19:07.834Z,36.96
2022-08-17T00:19:40.907Z,37.17
2022-08-17T00:20:14.166Z,37.29
2022-08-17T00:20:50.119Z,37.00
2022-08-17T00:21:25.358Z,37.20
2022-08-17T00:22:34.586Z,37.06
2022-08-17T00:23:05.846Z,36.91
2022-08-17T00:23:47.837Z,37.03
2022-08-17T00:24:21.814Z,37.46
2022-08-17T00:24:57.177Z,37.17
2022-08-17T00:25:29.522Z,37.17
2022-08-17T00:26:04.537Z,37.04
2022-08-17T00:26:44.744Z,37.16
2022-08-17T00:27:17.994Z,37.04
2022-08-17T00:27:50.346Z,37.15
2022-08-17T00:28:25.815Z,36.86
2022-08-17T00:28:58.146Z,37.22
2022-08-17T00:29:30.551Z,37.21
2022-08-17T00:30:03.791Z,37.42
2022-08-17T00:30:50.784Z,37.19
2022-08-17T00:31:24.209Z,37.18
2022-08-17T00:31:56.577Z,37.31
2022-08-17T00:33:13.602Z,37.40
2022-08-17T00:33:26.845Z,37.22
2022-08-17T00:33:59.636Z,37.32
2022-08-17T00:34:34.663Z,37.19
2022-08-17T00:35:10.101Z,37.28
2022-08-17T00:35:43.417Z,37.09
2022-08-17T00:36:18.918Z,37.20
2022-08-17T00:36:51.338Z,37.22
2022-08-17T00:37:23.659Z,37.10
2022-08-17T00:37:56.024Z,36.81
2022-08-17T00:38:32.241Z,37.12
2022-08-17T00:39:07.176Z,36.98
2022-08-17T00:39:40.001Z,37.15
2022-08-17T00:40:17.291Z,37.17
2022-08-17T00:40:51.808Z,37.10
2022-08-17T00:41:28.946Z,37.32
2022-08-17T00:42:16.017Z,37.22
2022-08-17T00:42:49.254Z,36.99
2022-08-17T00:43:26.515Z,36.91
2022-08-17T00:44:03.591Z,37.20
2022-08-17T00:44:35.924Z,37.21
2022-08-17T00:45:10.855Z,36.78
2022-08-17T00:45:45.939Z,37.20
2022-08-17T00:46:22.122Z,37.11
2022-08-17T00:46:57.443Z,36.91
2022-08-17T00:47:29.743Z,37.05
2022-08-17T00:48:02.117Z,37.54
2022-08-17T00:48:37.646Z,37.24
2022-08-17T00:49:12.530Z,37.18
2022-08-17T00:49:44.852Z,37.42
2022-08-17T00:50:22.061Z,37.00
2022-08-17T00:50:57.934Z,36.97
2022-08-17T00:51:34.570Z,37.20
2022-08-17T00:52:15.709Z,37.03
2022-08-17T00:52:56.855Z,37.34
2022-08-17T00:53:31.593Z,36.96
2022-08-17T00:54:26.134Z,36.87
2022-08-17T00:54:59.109Z,37.16
2022-08-17T00:55:32.990Z,37.15
2022-08-17T00:56:10.159Z,37.10
2022-08-17T00:56:45.242Z,37.46
2022-08-17T00:57:20.339Z,37.16
2022-08-17T00:57:59.694Z,36.88
2022-08-17T00:58:36.286Z,37.20
2022-08-17T00:59:10.034Z,37.24
2022-08-17T00:59:55.963Z,37.06
2022-08-17T01:00:39.373Z,37.01
2022-08-17T01:01:21.867Z,37.00
2022-08-17T01:01:54.597Z,36.85
2022-08-17T01:02:28.334Z,37.10
2022-08-17T01:03:06.764Z,37.28
2022-08-17T01:03:39.521Z,37.09
2022-08-17T01:04:13.635Z,37.03
2022-08-17T01:04:51.138Z,36.99
2022-08-17T01:05:25.672Z,37.39
2022-08-17T01:06:00.137Z,37.05
2022-08-17T01:06:35.630Z,37.11
2022-08-17T01:07:08.345Z,37.24
2022-08-17T01:07:40.851Z,37.10
2022-08-17T01:08:19.758Z,37.14
2022-08-17T01:08:57.316Z,37.10
2022-08-17T01:09:33.649Z,37.34
2022-08-17T01:10:58.194Z,37.15
2022-08-17T01:11:05.515Z,37.02
2022-08-17T01:11:40.754Z,37.15
2022-08-17T01:12:13.216Z,37.24
2022-08-17T01:12:45.654Z,36.77
2022-08-17T01:13:20.897Z,37.22
2022-08-17T01:13:54.094Z,37.17
2022-08-17T01:14:26.777Z,37.13
2022-08-17T01:15:01.699Z,37.27
2022-08-17T01:15:36.890Z,37.25
2022-08-17T01:16:16.214Z,36.86
2022-08-17T01:16:52.618Z,36.74
2022-08-17T01:17:24.974Z,37.19
2022-08-17T01:17:57.538Z,37.08
2022-08-17T01:18:32.491Z,37.20
2022-08-17T01:19:07.041Z,37.11
2022-08-17T01:19:41.970Z,37.14
2022-08-17T01:20:17.014Z,37.10
2022-08-17T01:20:51.364Z,36.81
2022-08-17T01:21:29.518Z,37.37
2022-08-17T01:22:09.005Z,36.82
2022-08-17T01:22:43.995Z,37.12
2022-08-17T01:23:20.411Z,36.97
2022-08-17T01:23:56.135Z,36.91
2022-08-17T01:24:29.206Z,37.15
2022-08-17T01:25:05.189Z,36.98
2022-08-17T01:25:40.607Z,37.10
2022-08-17T01:26:13.149Z,37.19
2022-08-17T01:26:49.152Z,36.93
2022-08-17T01:27:21.724Z,37.45
2022-08-17T01:27:54.109Z,37.00
2022-08-17T01:28:36.401Z,37.23
2022-08-17T01:29:24.497Z,37.05
2022-08-17T01:30:02.611Z,36.95
2022-08-17T01:30:57.142Z,36.94
2022-08-17T01:31:29.926Z,37.14
2022-08-17T01:32:07.481Z,37.17
2022-08-17T01:32:40.718Z,37.01
2022-08-17T01:33:13.189Z,36.92
2022-08-17T01:33:48.256Z,37.07
2022-08-17T01:34:21.151Z,37.27
2022-08-17T01:34:54.255Z,36.98
2022-08-17T01:35:26.711Z,37.14
2022-08-17T01:36:01.954Z,37.06
2022-08-17T01:36:34.289Z,36.81
2022-08-17T01:37:06.612Z,37.08
2022-08-17T01:37:43.667Z,37.16
2022-08-17T01:38:19.840Z,37.00
2022-08-17T01:39:02.229Z,37.00
2022-08-17T01:39:37.193Z,37.23
2022-08-17T01:40:15.530Z,37.09
2022-08-17T01:40:57.373Z,36.98
2022-08-17T01:41:30.318Z,36.93
2022-08-17T01:42:07.098Z,37.22
2022-08-17T01:42:46.085Z,37.04
2022-08-17T01:43:22.835Z,36.91
2022-08-17T01:43:57.362Z,37.07
2022-08-17T01:44:32.387Z,37.21
2022-08-17T01:45:08.461Z,37.15
2022-08-17T01:45:44.599Z,37.22
2022-08-17T01:46:24.681Z,36.94
2022-08-17T01:46:57.027Z,37.08
2022-08-17T01:47:29.838Z,37.04
2022-08-17T01:48:06.391Z,37.03
2022-08-17T01:48:39.059Z,37.06
2022-08-17T01:49:12.331Z,36.66
2022-08-17T01:49:47.719Z,36.79
2022-08-17T01:50:22.853Z,37.03
2022-08-17T01:50:55.167Z,36.95
2022-08-17T01:51:33.642Z,36.94
2022-08-17T01:52:08.375Z,36.97
2022-08-17T01:52:41.085Z,37.10
2022-08-17T01:53:18.322Z,37.01
2022-08-17T01:53:55.961Z,37.07
2022-08-17T01:54:31.060Z,36.61
2022-08-17T01:55:04.892Z,36.78
2022-08-17T01:55:41.035Z,36.87
2022-08-17T01:56:18.179Z,37.36
2022-08-17T01:56:51.651Z,37.03
2022-08-17T01:57:23.984Z,37.10
2022-08-17T01:57:59.034Z,37.05
2022-08-17T01:58:32.866Z,37.03
2022-08-17T01:59:05.333Z,37.04
2022-08-17T01:59:40.294Z,36.96
2022-08-17T02:00:14.161Z,37.03
2022-08-17T02:01:00.250Z,37.04
2022-08-17T02:01:37.557Z,36.85
2022-08-17T02:02:10.470Z,36.96
2022-08-17T02:02:46.031Z,37.26
2022-08-17T02:03:21.084Z,37.10
2022-08-17T02:03:59.574Z,37.10
2022-08-17T02:04:34.457Z,37.01
2022-08-17T02:05:10.726Z,37.18
2022-08-17T02:05:43.090Z,37.02
2022-08-17T02:06:27.650Z,37.33
2022-08-17T02:07:03.224Z,37.05
2022-08-17T02:07:59.709Z,36.63
2022-08-17T02:08:39.528Z,36.87
2022-08-17T02:09:32.682Z,36.96
2022-08-17T02:10:18.961Z,36.95
2022-08-17T02:10:52.526Z,36.71
2022-08-17T02:11:24.996Z,36.93
2022-08-17T02:12:37.233Z,36.86
2022-08-17T02:12:56.349Z,36.88
2022-08-17T02:13:29.891Z,37.17
2022-08-17T02:14:05.287Z,37.09
2022-08-17T02:14:37.606Z,36.98
2022-08-17T02:15:12.581Z,36.85
2022-08-17T02:15:47.714Z,37.29
2022-08-17T02:16:20.197Z,37.29
2022-08-17T02:16:53.211Z,36.93
2022-08-17T02:17:28.208Z,36.94
2022-08-17T02:18:01.579Z,37.10
2022-08-17T02:18:33.901Z,36.76
2022-08-17T02:19:10.682Z,36.63
2022-08-17T02:19:43.053Z,37.13
2022-08-17T02:20:15.618Z,36.75
2022-08-17T02:21:10.946Z,37.05
2022-08-17T02:21:47.447Z,36.96
2022-08-17T02:22:19.997Z,36.86
2022-08-17T02:22:54.986Z,37.22
2022-08-17T02:23:29.571Z,36.75
2022-08-17T02:24:02.516Z,36.99
2022-08-17T02:25:00.318Z,36.81
2022-08-17T02:25:34.182Z,36.72
2022-08-17T02:26:07.994Z,36.88
2022-08-17T02:26:43.146Z,36.92
2022-08-17T02:27:15.498Z,36.51
2022-08-17T02:27:47.932Z,37.25
2022-08-17T02:28:22.885Z,37.03
2022-08-17T02:28:55.674Z,36.89
2022-08-17T02:29:28.015Z,36.76
2022-08-17T02:30:02.939Z,37.21
2022-08-17T02:31:01.206Z,36.82
2022-08-17T02:31:27.738Z,36.76
2022-08-17T02:32:02.780Z,37.21
2022-08-17T02:32:35.111Z,37.05
2022-08-17T02:33:09.386Z,36.71
2022-08-17T02:33:44.468Z,36.95
2022-08-17T02:34:16.864Z,36.82
2022-08-17T02:34:49.314Z,36.85
2022-08-17T02:35:24.626Z,36.73
2022-08-17T02:35:57.991Z,37.05
2022-08-17T02:36:30.348Z,36.99
2022-08-17T02:37:05.401Z,37.17
2022-08-17T02:37:37.721Z,36.93
2022-08-17T02:38:10.384Z,36.74
2022-08-17T02:38:45.693Z,37.05
2022-08-17T02:39:18.754Z,36.81
2022-08-17T02:39:53.904Z,36.76
2022-08-17T02:40:32.799Z,37.17
2022-08-17T02:41:09.401Z,36.79
2022-08-17T02:41:41.718Z,36.76
2022-08-17T02:42:17.029Z,36.76
2022-08-17T02:42:49.806Z,37.24
2022-08-17T02:43:22.230Z,36.58
2022-08-17T02:43:57.150Z,37.04
2022-08-17T02:44:39.358Z,36.62
2022-08-17T02:45:17.694Z,36.97
2022-08-17T02:45:50.191Z,36.76
2022-08-17T02:46:23.525Z,36.49
2022-08-17T02:46:58.438Z,36.68
2022-08-17T02:47:31.370Z,36.95
2022-08-17T02:48:04.765Z,37.13
2022-08-17T02:48:40.025Z,37.11
2022-08-17T02:49:12.378Z,36.60
2022-08-17T02:49:54.281Z,36.93
2022-08-17T02:50:30.674Z,36.53
2022-08-17T02:51:03.634Z,36.72
2022-08-17T02:51:36.259Z,36.93
2022-08-17T02:52:08.766Z,36.73
2022-08-17T02:52:47.441Z,36.74
2022-08-17T02:53:35.545Z,36.47
2022-08-17T02:54:40.235Z,36.35
2022-08-17T02:55:06.718Z,36.67
2022-08-17T02:55:41.642Z,36.67
2022-08-17T02:56:16.632Z,36.72
2022-08-17T02:56:48.969Z,36.35
2022-08-17T02:57:21.465Z,36.83
2022-08-17T02:57:57.006Z,36.98
2022-08-17T02:58:34.635Z,36.74
2022-08-17T02:59:07.964Z,36.81
2022-08-17T02:59:48.819Z,36.73
2022-08-17T03:00:24.322Z,36.74
2022-08-17T03:01:00.886Z,36.85
2022-08-17T03:01:36.094Z,36.77
2022-08-17T03:02:11.260Z,36.90
2022-08-17T03:02:47.537Z,36.71
2022-08-17T03:03:19.869Z,36.88
2022-08-17T03:03:52.454Z,37.29
2022-08-17T03:04:28.997Z,37.15
2022-08-17T03:05:02.534Z,37.04
2022-08-17T03:05:40.070Z,37.27
2022-08-17T03:06:16.637Z,37.47
2022-08-17T03:06:51.641Z,37.17
2022-08-17T03:07:24.135Z,37.16
2022-08-17T03:08:13.239Z,37.38
2022-08-17T03:08:46.161Z,37.33
2022-08-17T03:09:21.121Z,37.42
2022-08-17T03:09:54.139Z,37.10
2022-08-17T03:10:30.148Z,37.36
2022-08-17T03:11:02.863Z,37.30
2022-08-17T03:11:39.402Z,37.67
2022-08-17T03:12:13.798Z,37.42
2022-08-17T03:12:46.722Z,37.63
2022-08-17T03:13:22.336Z,37.43
2022-08-17T03:13:57.890Z,37.13
2022-08-17T03:14:32.674Z,37.45
2022-08-17T03:15:12.899Z,37.46
2022-08-17T03:15:46.415Z,37.42
2022-08-17T03:16:21.307Z,37.17
2022-08-17T03:16:59.454Z,37.68
2022-08-17T03:17:31.843Z,37.54
2022-08-17T03:18:04.627Z,37.27
2022-08-17T03:18:43.428Z,37.58
2022-08-17T03:19:15.904Z,37.58
2022-08-17T03:19:48.264Z,37.49
2022-08-17T03:20:24.970Z,37.26
2022-08-17T03:21:04.619Z,37.46
2022-08-17T03:21:37.601Z,37.62
2022-08-17T03:22:36.128Z,37.55
2022-08-17T03:23:04.989Z,37.46
2022-08-17T03:23:41.267Z,37.47
2022-08-17T03:24:15.215Z,37.39
2022-08-17T03:24:53.004Z,37.22
2022-08-17T03:25:32.132Z,37.69
2022-08-17T03:26:12.371Z,37.56
2022-08-17T03:26:50.501Z,37.53
2022-08-17T03:27:26.007Z,37.25
2022-08-17T03:28:00.924Z,37.84
2022-08-17T03:28:35.965Z,37.25
2022-08-17T03:29:10.249Z,37.62
2022-08-17T03:29:42.632Z,37.51
2022-08-17T03:30:29.651Z,37.47
2022-08-17T03:31:06.402Z,37.59
2022-08-17T03:31:44.403Z,37.61
2022-08-17T03:32:20.840Z,37.56
2022-08-17T03:32:55.059Z,37.72
2022-08-17T03:33:27.593Z,37.80
2022-08-17T03:34:02.763Z,37.60
2022-08-17T03:34:35.091Z,37.44
2022-08-17T03:35:08.914Z,37.32
2022-08-17T03:35:46.291Z,37.53
2022-08-17T03:36:23.774Z,37.57
2022-08-17T03:36:59.385Z,37.29
2022-08-17T03:37:33.354Z,37.27
2022-08-17T03:38:06.428Z,37.82
2022-08-17T03:38:41.982Z,37.46
2022-08-17T03:39:15.289Z,37.38
2022-08-17T03:39:47.883Z,37.48
2022-08-17T03:40:55.183Z,37.93
2022-08-17T03:41:20.313Z,37.74
2022-08-17T03:41:55.266Z,37.66
2022-08-17T03:42:32.513Z,37.74
2022-08-17T03:43:06.857Z,37.52
2022-08-17T03:43:41.852Z,37.55
2022-08-17T03:44:14.280Z,37.82
2022-08-17T03:44:49.088Z,37.68
2022-08-17T03:45:43.555Z,37.65
2022-08-17T03:46:34.947Z,37.29
2022-08-17T03:47:22.874Z,37.61
2022-08-17T03:48:11.767Z,37.56
2022-08-17T03:48:59.051Z,37.76
2022-08-17T03:49:46.359Z,37.86
2022-08-17T03:50:35.731Z,37.46
2022-08-17T03:51:26.778Z,37.93
2022-08-17T03:52:23.865Z,37.98
2022-08-17T03:53:13.665Z,37.58
2022-08-17T03:54:06.412Z,37.49
2022-08-17T03:54:58.864Z,37.60
2022-08-17T03:55:49.022Z,37.63
2022-08-17T03:56:39.184Z,37.71
2022-08-17T03:57:14.413Z,37.44
2022-08-17T03:57:46.768Z,37.60
2022-08-17T03:58:21.028Z,37.61
2022-08-17T03:58:57.123Z,37.82
2022-08-17T03:59:30.051Z,37.44
2022-08-17T04:00:05.226Z,37.54
2022-08-17T04:00:46.119Z,37.68
2022-08-17T04:01:18.600Z,37.49
2022-08-17T04:01:55.824Z,37.67
2022-08-17T04:02:31.969Z,37.77
2022-08-17T04:03:04.659Z,37.55
2022-08-17T04:03:39.586Z,37.78
2022-08-17T04:04:12.775Z,37.60
2022-08-17T04:04:45.571Z,37.55
2022-08-17T04:05:28.184Z,37.37
2022-08-17T04:06:02.374Z,37.65
2022-08-17T04:06:34.722Z,37.88
2022-08-17T04:07:12.765Z,37.93
2022-08-17T04:07:45.272Z,37.50
2022-08-17T04:08:18.370Z,37.54
2022-08-17T04:08:53.666Z,37.55
2022-08-17T04:09:26.124Z,37.60
2022-08-17T04:10:02.330Z,37.56
2022-08-17T04:10:45.034Z,37.52
2022-08-17T04:11:18.715Z,37.87
2022-08-17T04:11:54.971Z,37.27
2022-08-17T04:12:33.573Z,37.43
2022-08-17T04:13:06.609Z,37.91
2022-08-17T04:13:40.505Z,37.75
2022-08-17T04:14:19.651Z,37.62
2022-08-17T04:14:54.665Z,37.53
2022-08-17T04:15:28.373Z,37.61
2022-08-17T04:16:05.375Z,37.62
2022-08-17T04:16:40.317Z,37.69
2022-08-17T04:17:12.762Z,37.50
2022-08-17T04:17:49.330Z,37.51
2022-08-17T04:18:28.922Z,37.68
2022-08-17T04:19:08.133Z,37.54
2022-08-17T04:19:43.834Z,37.63
2022-08-17T04:20:21.868Z,37.80
2022-08-17T04:20:54.342Z,37.52
2022-08-17T04:21:29.670Z,37.64
2022-08-17T04:22:02.242Z,37.56
2022-08-17T04:22:34.616Z,37.67
2022-08-17T04:23:13.495Z,37.75
2022-08-17T04:23:49.338Z,37.71
2022-08-17T04:24:22.190Z,37.75
2022-08-17T04:24:57.178Z,37.63
2022-08-17T04:25:39.719Z,37.27
2022-08-17T04:26:52.925Z,37.63
2022-08-17T04:27:12.383Z,37.68
2022-08-17T04:27:44.762Z,37.66
2022-08-17T04:28:18.288Z,37.61
2022-08-17T04:28:53.308Z,37.66
2022-08-17T04:29:26.212Z,37.97
2022-08-17T04:30:21.254Z,38.02
2022-08-17T04:30:53.559Z,37.79
2022-08-17T04:31:27.089Z,37.72
2022-08-17T04:32:02.267Z,37.63
2022-08-17T04:33:00.689Z,38.02
2022-08-17T04:33:42.718Z,37.76
2022-08-17T04:34:15.078Z,37.90
2022-08-17T04:34:53.901Z,37.62
2022-08-17T04:35:31.704Z,37.80
2022-08-17T04:36:06.069Z,37.20
2022-08-17T04:36:41.142Z,37.45
2022-08-17T04:37:22.710Z,37.64
2022-08-17T04:37:55.196Z,37.68
2022-08-17T04:38:33.714Z,37.59
2022-08-17T04:39:06.080Z,37.46
2022-08-17T04:39:38.454Z,37.32
2022-08-17T04:40:39.074Z,37.12
2022-08-17T04:41:27.222Z,37.28
2022-08-17T04:42:17.124Z,36.95
2022-08-17T04:43:07.379Z,37.13
2022-08-17T04:43:41.836Z,37.34
2022-08-17T04:44:15.398Z,37.28
2022-08-17T04:45:11.232Z,37.72
2022-08-17T04:45:55.486Z,37.46
2022-08-17T04:46:34.673Z,37.39
2022-08-17T04:47:07.357Z,37.63
2022-08-17T04:47:43.063Z,37.45
2022-08-17T04:48:18.014Z,37.47
2022-08-17T04:48:52.218Z,37.43
2022-08-17T04:49:27.181Z,37.28
2022-08-17T04:50:02.518Z,36.98
2022-08-17T04:50:35.146Z,37.16
2022-08-17T04:51:10.533Z,37.39
2022-08-17T04:51:55.851Z,37.59
2022-08-17T04:52:43.586Z,36.91
2022-08-17T04:53:17.394Z,37.44
2022-08-17T04:53:55.025Z,37.10
2022-08-17T04:54:27.783Z,36.87
2022-08-17T04:55:03.787Z,37.10
2022-08-17T04:55:38.915Z,36.81
2022-08-17T04:56:16.745Z,37.05
2022-08-17T04:56:50.641Z,37.06
2022-08-17T04:57:25.568Z,36.81
2022-08-17T04:57:57.947Z,37.27
2022-08-17T04:58:32.988Z,36.84
2022-08-17T04:59:11.774Z,36.86
2022-08-17T04:59:44.356Z,37.01
2022-08-17T05:00:16.862Z,36.97
2022-08-17T05:00:49.271Z,36.48
2022-08-17T05:01:25.549Z,36.82
2022-08-17T05:01:58.170Z,36.74
2022-08-17T05:02:30.473Z,36.81
2022-08-17T05:03:05.458Z,36.64
2022-08-17T05:03:38.078Z,36.79
2022-08-17T05:04:21.417Z,36.93
2022-08-17T05:05:07.739Z,36.42
2022-08-17T05:05:43.245Z,36.60
2022-08-17T05:06:18.267Z,36.78
2022-08-17T05:06:51.165Z,36.52
2022-08-17T05:07:30.888Z,36.71
2022-08-17T05:08:05.782Z,36.21
2022-08-17T05:08:38.928Z,36.55
2022-08-17T05:09:14.336Z,36.60
2022-08-17T05:09:47.019Z,36.15
2022-08-17T05:10:20.222Z,36.44
2022-08-17T05:10:55.141Z,36.33
2022-08-17T05:11:29.118Z,36.38
2022-08-17T05:12:01.975Z,36.52
2022-08-17T05:12:36.854Z,36.29
2022-08-17T05:13:11.329Z,36.23
2022-08-17T05:13:50.374Z,36.20
2022-08-17T05:14:22.864Z,36.06
2022-08-17T05:15:11.755Z,36.10
2022-08-17T05:15:48.698Z,35.88
2022-08-17T05:16:21.807Z,35.71
2022-08-17T05:16:56.750Z,35.75
2022-08-17T05:17:29.115Z,35.89
2022-08-17T05:18:01.495Z,36.08
2022-08-17T05:18:37.357Z,35.86
2022-08-17T05:19:09.634Z,35.85
2022-08-17T05:19:41.993Z,36.30
2022-08-17T05:20:17.009Z,35.96
2022-08-17T05:20:49.372Z,35.61
2022-08-17T05:21:28.772Z,35.48
2022-08-17T05:22:04.880Z,35.70
2022-08-17T05:22:37.233Z,35.85
2022-08-17T05:23:14.997Z,35.79
2022-08-17T05:23:50.354Z,35.69
2022-08-17T05:24:43.124Z,35.88
2022-08-17T05:25:25.734Z,36.04
2022-08-17T05:26:00.790Z,35.75
2022-08-17T05:26:34.500Z,36.02
2022-08-17T05:27:08.813Z,36.03
2022-08-17T05:27:43.768Z,35.87
2022-08-17T05:28:17.346Z,36.10
2022-08-17T05:28:53.750Z,35.73
2022-08-17T05:29:35.302Z,35.76
2022-08-17T05:30:09.104Z,35.48
2022-08-17T05:30:42.777Z,35.81
2022-08-17T05:31:18.011Z,35.95
2022-08-17T05:31:50.574Z,35.93
2022-08-17T05:32:38.185Z,36.01
2022-08-17T05:33:16.685Z,36.25
2022-08-17T05:33:49.646Z,36.31
2022-08-17T05:34:24.595Z,35.72
2022-08-17T05:35:00.077Z,36.20
2022-08-17T05:35:35.451Z,36.08
2022-08-17T05:36:41.933Z,35.86
2022-08-17T05:37:05.658Z,36.08
2022-08-17T05:37:40.571Z,36.07
2022-08-17T05:38:13.275Z,36.03
2022-08-17T05:38:48.222Z,36.00
2022-08-17T05:39:20.540Z,35.93
2022-08-17T05:39:54.096Z,35.74
2022-08-17T05:40:32.918Z,35.74
2022-08-17T05:41:07.480Z,36.05
2022-08-17T05:41:42.551Z,35.91
2022-08-17T05:42:19.065Z,35.78
2022-08-17T05:42:51.480Z,35.93
2022-08-17T05:43:29.644Z,36.06
2022-08-17T05:44:05.475Z,35.94
2022-08-17T05:44:40.574Z,35.88
2022-08-17T05:45:13.195Z,35.99
2022-08-17T05:45:55.319Z,35.99
2022-08-17T05:46:43.294Z,36.04
2022-08-17T05:47:15.659Z,36.18
2022-08-17T05:47:48.175Z,36.21
2022-08-17T05:48:39.675Z,36.35
2022-08-17T05:49:13.341Z,36.37
2022-08-17T05:49:49.199Z,36.31
2022-08-17T05:50:27.011Z,36.37
2022-08-17T05:51:06.389Z,36.43
2022-08-17T05:51:51.339Z,36.36
2022-08-17T05:52:27.340Z,36.25
2022-08-17T05:53:04.171Z,36.34
2022-08-17T05:53:43.082Z,36.33
2022-08-17T05:54:29.836Z,36.42
2022-08-17T05:55:16.314Z,36.52
2022-08-17T05:55:51.423Z,36.31
2022-08-17T05:56:39.489Z,36.55
2022-08-17T05:57:42.393Z,36.58
2022-08-17T05:58:26.514Z,36.86
2022-08-17T05:59:08.298Z,36.45
2022-08-17T05:59:48.449Z,36.57
2022-08-17T06:00:26.461Z,36.57
2022-08-17T06:01:05.886Z,36.64
2022-08-17T06:01:44.391Z,36.35
2022-08-17T06:02:26.008Z,36.68
2022-08-17T06:03:16.783Z,36.79
2022-08-17T06:03:55.873Z,36.79
2022-08-17T06:04:37.713Z,36.86
2022-08-17T06:05:18.050Z,36.67
2022-08-17T06:06:01.431Z,37.00
2022-08-17T06:06:39.896Z,37.13
2022-08-17T06:07:17.917Z,37.05
2022-08-17T06:07:57.014Z,37.16
2022-08-17T06:08:35.101Z,36.90
2022-08-17T06:09:28.912Z,37.12
2022-08-17T06:10:09.969Z,37.39
2022-08-17T06:10:50.963Z,37.43
2022-08-17T06:11:28.350Z,37.26
2022-08-17T06:12:06.791Z,37.42
2022-08-17T06:12:59.590Z,37.39
2022-08-17T06:13:43.775Z,37.27
2022-08-17T06:14:37.831Z,37.34
2022-08-17T06:15:27.773Z,37.17
2022-08-17T06:16:32.959Z,37.37
2022-08-17T06:17:01.341Z,37.35
2022-08-17T06:17:36.807Z,36.95
2022-08-17T06:18:10.249Z,37.36
2022-08-17T06:18:49.634Z,37.24
2022-08-17T06:19:28.494Z,37.40
2022-08-17T06:20:07.207Z,37.32
2022-08-17T06:20:46.535Z,37.06
2022-08-17T06:21:20.537Z,37.25
2022-08-17T06:22:02.823Z,37.18
2022-08-17T06:22:38.254Z,37.40
2022-08-17T06:23:13.273Z,36.98
2022-08-17T06:23:51.932Z,37.07
2022-08-17T06:24:28.709Z,37.27
2022-08-17T06:25:03.850Z,37.28
2022-08-17T06:25:47.971Z,37.21
2022-08-17T06:26:23.305Z,37.42
2022-08-17T06:27:10.953Z,37.31
2022-08-17T06:27:47.104Z,37.26
2022-08-17T06:28:33.027Z,37.42
2022-08-17T06:29:09.011Z,37.45
2022-08-17T06:29:58.147Z,37.31
2022-08-17T06:30:59.522Z,37.28
2022-08-17T06:31:35.059Z,37.34
2022-08-17T06:32:13.999Z,37.05
2022-08-17T06:32:48.992Z,37.22
2022-08-17T06:33:23.110Z,37.22
2022-08-17T06:33:59.082Z,37.00
2022-08-17T06:34:32.127Z,37.17
2022-08-17T06:35:11.535Z,37.27
2022-08-17T06:35:52.202Z,37.27
2022-08-17T06:36:40.303Z,37.17
2022-08-17T06:37:26.005Z,37.54
2022-08-17T06:38:04.444Z,37.01
2022-08-17T06:38:46.809Z,37.31
2022-08-17T06:39:28.732Z,37.36
2022-08-17T06:40:18.509Z,37.15
2022-08-17T06:40:57.620Z,37.09
2022-08-17T06:41:43.118Z,37.65
2022-08-17T06:42:54.944Z,37.39
2022-08-17T06:43:27.454Z,37.30
2022-08-17T06:44:07.199Z,37.41
2022-08-17T06:44:51.411Z,37.46
2022-08-17T06:45:31.431Z,37.67
2022-08-17T06:46:11.548Z,37.39
2022-08-17T06:46:48.663Z,37.32
2022-08-17T06:47:28.932Z,37.67
2022-08-17T06:48:09.169Z,37.46
2022-08-17T06:48:50.175Z,37.32
2022-08-17T06:49:28.794Z,37.80
2022-08-17T06:50:14.687Z,37.73
2022-08-17T06:50:50.062Z,37.56
2022-08-17T06:51:28.395Z,37.63
2022-08-17T06:52:12.422Z,37.42
2022-08-17T06:53:14.123Z,37.71
2022-08-17T06:53:49.522Z,37.91
2022-08-17T06:54:27.541Z,37.58
2022-08-17T06:55:05.335Z,37.36
2022-08-17T06:55:46.691Z,37.93
2022-08-17T06:56:27.140Z,37.66
2022-08-17T06:57:25.072Z,37.75
2022-08-17T06:58:05.903Z,37.57
2022-08-17T06:58:49.685Z,37.76
2022-08-17T06:59:54.147Z,37.90
2022-08-17T07:00:24.129Z,37.90
2022-08-17T07:01:05.975Z,37.49
2022-08-17T07:01:39.730Z,37.57
2022-08-17T07:02:52.317Z,37.73
2022-08-17T07:03:32.528Z,37.64
2022-08-17T07:04:12.113Z,38.02
2022-08-17T07:04:44.882Z,37.71
2022-08-17T07:05:21.975Z,37.83
2022-08-17T07:05:56.042Z,37.99
2022-08-17T07:06:38.041Z,38.07
2022-08-17T07:07:26.937Z,37.83
2022-08-17T07:08:02.909Z,37.90
2022-08-17T07:08:50.374Z,37.90
2022-08-17T07:09:28.210Z,38.15
2022-08-17T07:10:04.091Z,38.01
2022-08-17T07:10:40.026Z,38.02
2022-08-17T07:11:14.593Z,38.36
2022-08-17T07:11:53.437Z,38.31
2022-08-17T07:12:30.034Z,38.27
2022-08-17T07:13:17.323Z,37.97
2022-08-17T07:13:59.965Z,38.26
2022-08-17T07:14:36.824Z,38.20
2022-08-17T07:15:13.264Z,38.08
2022-08-17T07:15:51.778Z,38.33
2022-08-17T07:16:36.437Z,38.48
2022-08-17T07:17:14.382Z,38.59
2022-08-17T07:17:48.518Z,38.56
2022-08-17T07:18:21.526Z,38.75
2022-08-17T07:18:57.858Z,38.62
2022-08-17T07:19:32.986Z,38.87
2022-08-17T07:20:11.087Z,38.55
2022-08-17T07:20:47.622Z,38.63
2022-08-17T07:21:38.726Z,38.30
2022-08-17T07:22:18.817Z,38.34
2022-08-17T07:22:59.905Z,38.17
2022-08-17T07:23:40.198Z,38.29
2022-08-17T07:24:29.662Z,38.65
2022-08-17T07:25:08.399Z,38.27
2022-08-17T07:25:40.747Z,38.61
2022-08-17T07:26:13.588Z,38.30
2022-08-17T07:26:49.662Z,38.41
2022-08-17T07:27:27.663Z,38.32
2022-08-17T07:28:07.846Z,38.05
2022-08-17T07:28:40.375Z,38.07
2022-08-17T07:29:18.793Z,38.14
2022-08-17T07:29:57.646Z,37.97
2022-08-17T07:30:44.600Z,37.82
2022-08-17T07:31:22.257Z,37.60
2022-08-17T07:31:57.561Z,37.66
2022-08-17T07:32:36.922Z,38.27
2022-08-17T07:33:12.549Z,37.85
2022-08-17T07:34:02.710Z,37.61
2022-08-17T07:35:00.191Z,37.96
2022-08-17T07:35:41.234Z,38.09
2022-08-17T07:36:29.257Z,38.03
2022-08-17T07:37:03.527Z,37.91
2022-08-17T07:37:39.234Z,38.09
2022-08-17T07:38:25.185Z,38.19
2022-08-17T07:38:58.984Z,38.09
2022-08-17T07:39:31.701Z,38.12
2022-08-17T07:40:19.520Z,38.00
2022-08-17T07:41:02.275Z,38.04
2022-08-17T07:41:57.710Z,37.97
2022-08-17T07:42:31.441Z,37.92
2022-08-17T07:43:18.758Z,37.59
2022-08-17T07:43:59.115Z,37.92
2022-08-17T07:44:31.563Z,37.88
2022-08-17T07:45:24.354Z,38.14
2022-08-17T07:46:31.560Z,38.18
2022-08-17T07:47:31.568Z,37.93
2022-08-17T07:48:22.566Z,38.10
2022-08-17T07:48:59.683Z,37.99
2022-08-17T07:49:35.557Z,38.14
2022-08-17T07:50:27.735Z,38.24
2022-08-17T07:51:00.338Z,38.56
2022-08-17T07:51:36.777Z,38.17
2022-08-17T07:52:24.001Z,38.13
2022-08-17T07:53:18.663Z,38.40
2022-08-17T07:53:51.369Z,37.90
2022-08-17T07:54:31.098Z,38.46
2022-08-17T07:55:27.475Z,38.18
2022-08-17T07:56:02.403Z,38.24
2022-08-17T07:56:40.541Z,38.49
2022-08-17T07:57:34.570Z,38.11
2022-08-17T07:58:07.068Z,38.08
2022-08-17T07:58:39.350Z,38.24
2022-08-17T07:59:14.993Z,38.68
2022-08-17T08:00:16.886Z,38.19
2022-08-17T08:01:04.627Z,38.54
2022-08-17T08:01:42.054Z,38.53
2022-08-17T08:02:31.759Z,38.40
2022-08-17T08:03:23.705Z,38.85
2022-08-17T08:03:59.242Z,38.58
2022-08-17T08:05:50.748Z,39.04
2022-08-17T08:06:26.474Z,39.40
2022-08-17T08:07:02.870Z,39.33
2022-08-17T08:07:39.383Z,38.83
2022-08-17T08:08:33.629Z,39.12
2022-08-17T08:09:06.022Z,39.42
2022-08-17T08:09:44.613Z,39.23
2022-08-17T08:10:28.250Z,39.06
2022-08-17T08:11:07.299Z,39.29
2022-08-17T08:11:44.360Z,39.35